createdAt,value
2023-03-25T00:00:00.183Z,94.8
2023-03-25T00:05:00.177Z,94.8
2023-03-25T00:10:00.193Z,94.8
2023-03-25T00:15:00.143Z,95
2023-03-25T00:20:00.093Z,95.1
2023-03-25T00:25:00.164Z,95.1
2023-03-25T00:30:00.165Z,95.2
2023-03-25T00:35:00.116Z,95.1
2023-03-25T00:40:00.143Z,95
2023-03-25T00:45:00.145Z,94.9
2023-03-25T00:50:00.154Z,94.6
2023-03-25T00:55:00.110Z,94.5
2023-03-25T01:00:00.177Z,94.2
2023-03-25T01:05:00.121Z,93.9
2023-03-25T01:10:00.231Z,94.1
2023-03-25T01:15:00.094Z,93.8
2023-03-25T01:20:00.153Z,93.5
2023-03-25T01:25:00.101Z,93.3
2023-03-25T01:30:00.132Z,93.1
2023-03-25T01:35:00.104Z,92.4
2023-03-25T01:40:00.141Z,92.4
2023-03-25T01:45:00.098Z,92.2
2023-03-25T01:50:00.148Z,91.9
2023-03-25T01:55:00.101Z,91.7
2023-03-25T02:00:00.176Z,91.5
2023-03-25T02:05:00.163Z,91.2
2023-03-25T02:10:00.158Z,91
2023-03-25T02:15:00.144Z,90.6
2023-03-25T02:20:00.131Z,90.1
2023-03-25T02:25:00.104Z,90
2023-03-25T02:30:00.169Z,89.8
2023-03-25T02:35:00.125Z,90
2023-03-25T02:40:00.144Z,90
2023-03-25T02:45:00.112Z,90.1
2023-03-25T02:50:00.128Z,90.1
2023-03-25T02:55:00.131Z,90
2023-03-25T03:00:00.210Z,90.2
2023-03-25T03:05:00.153Z,90.7
2023-03-25T03:10:00.183Z,90.9
2023-03-25T03:15:00.132Z,91
2023-03-25T03:20:00.086Z,91.2
2023-03-25T03:25:00.108Z,91.3
2023-03-25T03:30:00.152Z,91.4
2023-03-25T03:35:00.121Z,91.4
2023-03-25T03:40:00.148Z,91.3
2023-03-25T03:45:00.101Z,91.2
2023-03-25T03:50:00.182Z,91
2023-03-25T03:55:00.106Z,90.9
2023-03-25T04:00:00.142Z,90.7
2023-03-25T04:05:00.125Z,90.4
2023-03-25T04:10:00.129Z,90.3
2023-03-25T04:15:00.144Z,89.9
2023-03-25T04:20:00.108Z,88.1
2023-03-25T04:25:00.145Z,86.5
2023-03-25T04:30:00.225Z,84.7
2023-03-25T04:35:00.128Z,83.6
2023-03-25T04:40:00.317Z,82.6
2023-03-25T04:45:00.116Z,80.6
2023-03-25T04:50:00.185Z,79.5
2023-03-25T04:55:00.128Z,78.6
2023-03-25T05:00:00.162Z,78.9
2023-03-25T05:05:00.106Z,78.7
2023-03-25T05:10:00.179Z,77.9
2023-03-25T05:15:00.087Z,77.6
2023-03-25T05:20:00.114Z,77.2
2023-03-25T05:25:00.105Z,77.2
2023-03-25T05:30:00.203Z,77.6
2023-03-25T05:35:00.137Z,77.4
2023-03-25T05:40:00.102Z,77
2023-03-25T05:45:00.126Z,77
2023-03-25T05:50:00.123Z,77.2
2023-03-25T05:55:00.103Z,75.3
2023-03-25T06:00:00.174Z,73.4
2023-03-25T06:05:00.117Z,73.3
2023-03-25T06:10:00.157Z,73.1
2023-03-25T06:15:00.122Z,73.3
2023-03-25T06:20:00.124Z,73.2
2023-03-25T06:25:01.760Z,73.3
2023-03-25T06:30:00.165Z,73
2023-03-25T06:35:00.117Z,71.7
2023-03-25T06:40:00.114Z,71.5
2023-03-25T06:45:00.115Z,71.1
2023-03-25T06:50:00.110Z,71.2
2023-03-25T06:55:00.121Z,71.5
2023-03-25T07:00:00.136Z,71.6
2023-03-25T07:05:00.247Z,72.5
2023-03-25T07:10:00.156Z,72.6
2023-03-25T07:15:00.137Z,71.8
2023-03-25T07:20:00.099Z,68.5
2023-03-25T07:25:00.108Z,66.7
2023-03-25T07:30:00.215Z,66.7
2023-03-25T07:35:00.117Z,67
2023-03-25T07:40:00.102Z,68.7
2023-03-25T07:45:00.143Z,70.8
2023-03-25T07:50:00.200Z,73.1
2023-03-25T07:55:00.149Z,74.8
2023-03-25T08:00:00.128Z,75.7
2023-03-25T08:05:00.862Z,76.5
2023-03-25T08:10:00.162Z,75.1
2023-03-25T08:15:00.112Z,75
2023-03-25T08:20:00.109Z,75.1
2023-03-25T08:25:00.138Z,75.1
2023-03-25T08:30:00.145Z,75.4
2023-03-25T08:35:00.156Z,74
2023-03-25T08:40:00.181Z,73.9
2023-03-25T08:45:00.108Z,73.8
2023-03-25T08:50:00.119Z,74.3
2023-03-25T08:55:00.137Z,75.7
2023-03-25T09:00:00.118Z,77.2
2023-03-25T09:05:00.172Z,79.6
2023-03-25T09:10:00.102Z,81.3
2023-03-25T09:15:00.111Z,81.5
2023-03-25T09:20:00.136Z,83.8
2023-03-25T09:25:00.129Z,82.5
2023-03-25T09:30:00.234Z,73.8
2023-03-25T09:35:00.135Z,64.6
2023-03-25T09:40:00.136Z,60.5
2023-03-25T09:45:04.754Z,56.1
2023-03-25T09:50:01.065Z,58
2023-03-25T09:55:00.120Z,60.9
2023-03-25T10:00:00.136Z,99.9
2023-03-25T10:05:00.134Z,99.9
2023-03-25T10:10:00.137Z,99.9
2023-03-25T10:15:00.137Z,99.9
2023-03-25T10:20:00.137Z,55.6
2023-03-25T10:25:00.133Z,50
2023-03-25T10:30:00.175Z,45.6
2023-03-25T10:35:00.123Z,46.7
2023-03-25T10:40:00.115Z,49.9
2023-03-25T10:45:00.108Z,53.4
2023-03-25T10:50:00.161Z,54.6
2023-03-25T10:55:00.134Z,55.7
2023-03-25T11:00:00.166Z,56.5
2023-03-25T11:05:00.133Z,50.8
2023-03-25T11:10:00.135Z,48.6
2023-03-25T11:15:00.123Z,49.8
2023-03-25T11:20:00.117Z,50.5
2023-03-25T11:25:00.110Z,51.2
2023-03-25T11:30:00.141Z,53.2
2023-03-25T11:35:00.117Z,52.6
2023-03-25T11:40:00.107Z,55.1
2023-03-25T11:45:00.107Z,53.8
2023-03-25T11:50:00.185Z,51.2
2023-03-25T11:55:00.135Z,50.8
2023-03-25T12:00:00.187Z,50.5
2023-03-25T12:05:00.122Z,49
2023-03-25T12:10:00.178Z,47.6
2023-03-25T12:15:00.144Z,47.3
2023-03-25T12:20:00.134Z,47.3
2023-03-25T12:25:00.125Z,52.2
2023-03-25T12:30:00.183Z,57.8
2023-03-25T12:35:00.129Z,61.1
2023-03-25T12:40:01.467Z,64.5
2023-03-25T12:45:00.113Z,65.9
2023-03-25T12:50:00.168Z,65.2
2023-03-25T12:55:00.116Z,63.5
2023-03-25T13:00:00.127Z,62
2023-03-25T13:05:00.114Z,58.1
2023-03-25T13:10:00.232Z,55.6
2023-03-25T13:15:00.157Z,58.2
2023-03-25T13:20:00.131Z,67.2
2023-03-25T13:25:00.112Z,76.4
2023-03-25T13:30:00.160Z,83
2023-03-25T13:35:00.111Z,84.9
2023-03-25T13:40:00.135Z,85.8
2023-03-25T13:45:00.122Z,87.2
2023-03-25T13:50:00.125Z,86.9
2023-03-25T13:55:00.142Z,86.7
2023-03-25T14:00:00.146Z,85.2
2023-03-25T14:05:00.142Z,83.4
2023-03-25T14:10:00.152Z,81.9
2023-03-25T14:15:00.100Z,80.6
2023-03-25T14:20:00.108Z,80
2023-03-25T14:25:00.145Z,79.8
2023-03-25T14:30:00.152Z,79.8
2023-03-25T14:35:00.107Z,79.1
2023-03-25T14:40:00.448Z,77.7
2023-03-25T14:45:00.133Z,76.8
2023-03-25T14:50:00.204Z,76.2
2023-03-25T14:55:00.153Z,76
2023-03-25T15:00:00.132Z,74.5
2023-03-25T15:05:00.190Z,74.3
2023-03-25T15:10:00.151Z,72.9
2023-03-25T15:15:00.172Z,73.2
2023-03-25T15:20:00.158Z,73.2
2023-03-25T21:05:01.930Z,80.7
2023-03-25T21:10:00.175Z,81.1
2023-03-25T21:15:00.167Z,81
2023-03-25T21:20:00.205Z,81
2023-03-25T21:25:00.153Z,80.5
2023-03-25T21:30:00.193Z,81
2023-03-25T21:35:00.143Z,81.1
2023-03-25T21:40:00.154Z,81.1
2023-03-25T21:45:00.163Z,81.5
2023-03-25T21:50:00.129Z,82.4
2023-03-25T21:55:00.173Z,82.7
2023-03-25T22:00:00.131Z,82.7
2023-03-25T22:05:00.141Z,82.4
2023-03-25T22:10:00.119Z,82.1
2023-03-25T22:15:00.137Z,82.1
2023-03-25T22:20:00.134Z,82.6
2023-03-25T22:25:00.161Z,82.9
2023-03-25T22:30:00.177Z,83.1
2023-03-25T22:35:00.130Z,83.4
2023-03-25T22:40:00.204Z,83.4
2023-03-25T22:45:00.162Z,83.7
2023-03-25T22:50:00.144Z,84.1
2023-03-25T22:55:00.162Z,84.6
2023-03-25T23:00:00.156Z,85.2
2023-03-25T23:05:00.226Z,85.5
2023-03-25T23:10:00.123Z,85.9
2023-03-25T23:15:00.126Z,85.9
2023-03-25T23:20:00.171Z,86
2023-03-25T23:25:00.144Z,86.3
2023-03-25T23:30:00.148Z,86.7
2023-03-25T23:35:00.110Z,87.1
2023-03-25T23:40:00.095Z,87.5
2023-03-25T23:45:00.130Z,87.2
2023-03-25T23:50:00.133Z,86.4
2023-03-25T23:55:00.126Z,85.2
